MET5691 - Baltimore to Boston

Embraer ERJ-170LR
N920AU
1 hr 15 mins
321 nm
Scheduled - Daily

Bid/PiRep Status

Bid was submitted on January 2nd, 2017 20:49 UTC.
PiRep # 74602: Approved by Sean Doyle on January 4th, 2017 23:10 UTC

Departure

Departing from
Baltimore (BWI)
Departure gate
Scheduled Departure
GMT 1115
Local 0715
METAR KBWI 190454Z 00000KT 10SM SCT250 08/08 A3030 RMK AO2 SLP259 T00830078 402170039
TAF KBWI 182320Z 1900/2006 VRB03KT P6SM FEW150 SCT250 FM191700 21006KT P6SM FEW250 FM192300 VRB04KT P6SM FEW250

Route Map

Planning Resources

PALEO3,HTO,WOONS1
SWANN3 DQO DAVYS J42 LAURN J222 JFK J225 NEWES INNDY2 CCC TELLE KENEE WOBUR EMMEL FIX 17
DCT SWANN DCT OOD J42 RBV J222 JFK KRANN3
ODD DAVYS BRAND RBV LAURN SANTT PACER HFD PUT
DQO RBV LGA BDR MAD ORW KBOS
Route:
OFP Layout:
Units:
Detailed Navlog:
ETOPS Planning:
Plan Stepclimbs:
Runway Analysis:
Include NOTAMS:
FIR NOTAMS:
Flight Maps:

Return Flights

MET764
Airbus A321-232
2100 GMT
MET5690
Embraer ERJ-170LR
0200 GMT
MET5692
Embraer ERJ-170LR
1330 GMT
MET5764
Embraer ERJ-170LR
2200 GMT

Popularity

Hub Current Bids PiReps this month Total PiReps
KLAX 0 0 2
KBOS 0 0 2
KDFW 0 0 0